sensor_id;sensor_type;location;lat;lon;timestamp;P1;durP1;ratioP1;P2;durP2;ratioP2
29120;SDS011;16191;49.548;8.658;2022-10-20T00:01:13;12.07;;;8.50;;
29120;SDS011;16191;49.548;8.658;2022-10-20T00:03:41;16.33;;;9.90;;
29120;SDS011;16191;49.548;8.658;2022-10-20T00:06:10;14.35;;;9.18;;
29120;SDS011;16191;49.548;8.658;2022-10-20T00:08:38;13.10;;;9.27;;
29120;SDS011;16191;49.548;8.658;2022-10-20T00:11:07;15.95;;;9.07;;
29120;SDS011;16191;49.548;8.658;2022-10-20T00:13:35;12.50;;;8.43;;
29120;SDS011;16191;49.548;8.658;2022-10-20T00:16:02;15.35;;;9.20;;
29120;SDS011;16191;49.548;8.658;2022-10-20T00:18:29;14.73;;;9.05;;
29120;SDS011;16191;49.548;8.658;2022-10-20T00:21:17;10.77;;;7.95;;
29120;SDS011;16191;49.548;8.658;2022-10-20T00:24:08;17.17;;;9.02;;
29120;SDS011;16191;49.548;8.658;2022-10-20T00:26:54;16.00;;;8.63;;
29120;SDS011;16191;49.548;8.658;2022-10-20T00:29:41;14.32;;;7.63;;
29120;SDS011;16191;49.548;8.658;2022-10-20T00:32:28;15.52;;;7.80;;
29120;SDS011;16191;49.548;8.658;2022-10-20T00:35:17;12.55;;;8.02;;
29120;SDS011;16191;49.548;8.658;2022-10-20T00:37:44;14.48;;;7.97;;
29120;SDS011;16191;49.548;8.658;2022-10-20T00:40:11;13.38;;;7.50;;
29120;SDS011;16191;49.548;8.658;2022-10-20T00:42:42;14.02;;;8.30;;
29120;SDS011;16191;49.548;8.658;2022-10-20T00:45:11;13.32;;;8.80;;
29120;SDS011;16191;49.548;8.658;2022-10-20T00:47:44;11.25;;;8.95;;
29120;SDS011;16191;49.548;8.658;2022-10-20T00:50:18;17.10;;;8.57;;
29120;SDS011;16191;49.548;8.658;2022-10-20T00:52:48;14.55;;;9.25;;
29120;SDS011;16191;49.548;8.658;2022-10-20T00:55:27;13.68;;;8.23;;
29120;SDS011;16191;49.548;8.658;2022-10-20T00:57:57;16.70;;;7.93;;
29120;SDS011;16191;49.548;8.658;2022-10-20T01:00:26;16.48;;;8.85;;
29120;SDS011;16191;49.548;8.658;2022-10-20T01:02:53;14.75;;;8.20;;
29120;SDS011;16191;49.548;8.658;2022-10-20T01:05:23;12.65;;;6.63;;
29120;SDS011;16191;49.548;8.658;2022-10-20T01:07:50;9.27;;;6.90;;
29120;SDS011;16191;49.548;8.658;2022-10-20T01:10:17;10.52;;;7.72;;
29120;SDS011;16191;49.548;8.658;2022-10-20T01:13:02;17.98;;;8.20;;
29120;SDS011;16191;49.548;8.658;2022-10-20T01:24:01;15.63;;;7.18;;
29120;SDS011;16191;49.548;8.658;2022-10-20T01:26:56;17.10;;;6.97;;
29120;SDS011;16191;49.548;8.658;2022-10-20T01:32:42;9.88;;;6.85;;
29120;SDS011;16191;49.548;8.658;2022-10-20T01:38:38;10.63;;;7.40;;
29120;SDS011;16191;49.548;8.658;2022-10-20T01:43:44;12.10;;;7.22;;
29120;SDS011;16191;49.548;8.658;2022-10-20T01:46:13;12.60;;;7.03;;
29120;SDS011;16191;49.548;8.658;2022-10-20T01:48:42;15.30;;;7.68;;
29120;SDS011;16191;49.548;8.658;2022-10-20T01:51:11;10.60;;;6.50;;
29120;SDS011;16191;49.548;8.658;2022-10-20T01:53:38;12.18;;;6.93;;
29120;SDS011;16191;49.548;8.658;2022-10-20T01:56:04;10.77;;;6.75;;
29120;SDS011;16191;49.548;8.658;2022-10-20T01:58:47;12.02;;;7.72;;
29120;SDS011;16191;49.548;8.658;2022-10-20T02:04:05;11.73;;;7.18;;
29120;SDS011;16191;49.548;8.658;2022-10-20T02:09:10;12.10;;;7.75;;
29120;SDS011;16191;49.548;8.658;2022-10-20T02:11:51;11.27;;;7.50;;
29120;SDS011;16191;49.548;8.658;2022-10-20T02:14:25;15.88;;;7.88;;
29120;SDS011;16191;49.548;8.658;2022-10-20T02:16:54;13.50;;;7.93;;
29120;SDS011;16191;49.548;8.658;2022-10-20T02:19:25;17.80;;;7.60;;
29120;SDS011;16191;49.548;8.658;2022-10-20T02:21:56;13.10;;;7.35;;
29120;SDS011;16191;49.548;8.658;2022-10-20T02:24:25;8.63;;;6.40;;
29120;SDS011;16191;49.548;8.658;2022-10-20T02:26:55;13.15;;;7.63;;
29120;SDS011;16191;49.548;8.658;2022-10-20T02:29:27;13.82;;;7.38;;
29120;SDS011;16191;49.548;8.658;2022-10-20T02:31:56;9.82;;;6.68;;
29120;SDS011;16191;49.548;8.658;2022-10-20T02:34:26;11.73;;;6.45;;
29120;SDS011;16191;49.548;8.658;2022-10-20T02:36:54;16.27;;;7.25;;
29120;SDS011;16191;49.548;8.658;2022-10-20T02:39:24;9.40;;;6.45;;
29120;SDS011;16191;49.548;8.658;2022-10-20T02:41:51;11.88;;;6.50;;
29120;SDS011;16191;49.548;8.658;2022-10-20T02:44:18;14.50;;;6.85;;
29120;SDS011;16191;49.548;8.658;2022-10-20T02:46:45;13.18;;;7.45;;
29120;SDS011;16191;49.548;8.658;2022-10-20T02:49:11;10.40;;;6.97;;
29120;SDS011;16191;49.548;8.658;2022-10-20T02:51:38;10.88;;;7.25;;
29120;SDS011;16191;49.548;8.658;2022-10-20T02:54:05;13.77;;;7.05;;
29120;SDS011;16191;49.548;8.658;2022-10-20T02:56:31;16.73;;;7.07;;
29120;SDS011;16191;49.548;8.658;2022-10-20T02:58:58;10.05;;;6.78;;
29120;SDS011;16191;49.548;8.658;2022-10-20T03:01:25;11.55;;;6.70;;
29120;SDS011;16191;49.548;8.658;2022-10-20T03:03:51;13.82;;;7.25;;
29120;SDS011;16191;49.548;8.658;2022-10-20T03:06:24;17.08;;;7.15;;
29120;SDS011;16191;49.548;8.658;2022-10-20T03:08:51;13.90;;;6.85;;
29120;SDS011;16191;49.548;8.658;2022-10-20T03:11:17;13.55;;;7.35;;
29120;SDS011;16191;49.548;8.658;2022-10-20T03:13:44;12.75;;;7.43;;
29120;SDS011;16191;49.548;8.658;2022-10-20T03:16:11;11.65;;;6.70;;
29120;SDS011;16191;49.548;8.658;2022-10-20T03:18:37;11.98;;;6.25;;
29120;SDS011;16191;49.548;8.658;2022-10-20T03:21:04;12.90;;;7.38;;
29120;SDS011;16191;49.548;8.658;2022-10-20T03:23:30;10.38;;;6.93;;
29120;SDS011;16191;49.548;8.658;2022-10-20T03:26:01;11.32;;;6.45;;
29120;SDS011;16191;49.548;8.658;2022-10-20T03:28:29;13.02;;;6.82;;
29120;SDS011;16191;49.548;8.658;2022-10-20T03:30:56;12.68;;;6.82;;
29120;SDS011;16191;49.548;8.658;2022-10-20T03:33:23;15.20;;;7.50;;
29120;SDS011;16191;49.548;8.658;2022-10-20T03:35:50;15.65;;;7.03;;
29120;SDS011;16191;49.548;8.658;2022-10-20T03:38:16;15.27;;;6.70;;
29120;SDS011;16191;49.548;8.658;2022-10-20T03:40:42;10.13;;;6.93;;
29120;SDS011;16191;49.548;8.658;2022-10-20T03:43:09;10.55;;;7.10;;
29120;SDS011;16191;49.548;8.658;2022-10-20T03:45:36;12.98;;;7.25;;
29120;SDS011;16191;49.548;8.658;2022-10-20T03:48:03;11.38;;;7.45;;
29120;SDS011;16191;49.548;8.658;2022-10-20T03:50:30;10.52;;;7.18;;
29120;SDS011;16191;49.548;8.658;2022-10-20T03:52:56;12.40;;;6.90;;
29120;SDS011;16191;49.548;8.658;2022-10-20T03:55:23;10.43;;;7.38;;
29120;SDS011;16191;49.548;8.658;2022-10-20T03:57:50;8.13;;;6.18;;
29120;SDS011;16191;49.548;8.658;2022-10-20T04:00:17;15.20;;;7.20;;
29120;SDS011;16191;49.548;8.658;2022-10-20T04:02:44;12.70;;;7.45;;
29120;SDS011;16191;49.548;8.658;2022-10-20T04:05:18;12.32;;;7.43;;
29120;SDS011;16191;49.548;8.658;2022-10-20T04:07:45;11.45;;;6.88;;
29120;SDS011;16191;49.548;8.658;2022-10-20T04:10:13;14.52;;;7.45;;
29120;SDS011;16191;49.548;8.658;2022-10-20T04:12:41;16.33;;;6.97;;
29120;SDS011;16191;49.548;8.658;2022-10-20T04:15:08;10.48;;;6.80;;
29120;SDS011;16191;49.548;8.658;2022-10-20T04:17:36;10.13;;;7.20;;
29120;SDS011;16191;49.548;8.658;2022-10-20T04:20:03;12.90;;;7.50;;
29120;SDS011;16191;49.548;8.658;2022-10-20T04:22:31;12.73;;;7.43;;
29120;SDS011;16191;49.548;8.658;2022-10-20T04:24:59;11.50;;;6.57;;
29120;SDS011;16191;49.548;8.658;2022-10-20T04:27:26;12.48;;;6.80;;
29120;SDS011;16191;49.548;8.658;2022-10-20T04:29:54;9.75;;;6.88;;
29120;SDS011;16191;49.548;8.658;2022-10-20T04:32:21;10.43;;;6.63;;
29120;SDS011;16191;49.548;8.658;2022-10-20T04:34:48;12.18;;;6.63;;
29120;SDS011;16191;49.548;8.658;2022-10-20T04:37:14;10.35;;;6.78;;
29120;SDS011;16191;49.548;8.658;2022-10-20T04:39:41;9.20;;;6.63;;
29120;SDS011;16191;49.548;8.658;2022-10-20T04:42:08;10.38;;;6.80;;
29120;SDS011;16191;49.548;8.658;2022-10-20T04:44:35;12.60;;;7.18;;
29120;SDS011;16191;49.548;8.658;2022-10-20T04:47:01;13.35;;;6.78;;
29120;SDS011;16191;49.548;8.658;2022-10-20T04:49:28;10.07;;;6.38;;
29120;SDS011;16191;49.548;8.658;2022-10-20T04:51:54;16.73;;;7.63;;
29120;SDS011;16191;49.548;8.658;2022-10-20T04:54:26;9.93;;;6.97;;
29120;SDS011;16191;49.548;8.658;2022-10-20T04:56:53;14.75;;;7.03;;
29120;SDS011;16191;49.548;8.658;2022-10-20T04:59:21;12.13;;;7.20;;
29120;SDS011;16191;49.548;8.658;2022-10-20T05:01:47;11.70;;;6.53;;
29120;SDS011;16191;49.548;8.658;2022-10-20T05:04:14;11.40;;;7.00;;
29120;SDS011;16191;49.548;8.658;2022-10-20T05:06:46;12.38;;;7.57;;
29120;SDS011;16191;49.548;8.658;2022-10-20T05:09:14;11.55;;;7.28;;
29120;SDS011;16191;49.548;8.658;2022-10-20T05:11:41;13.75;;;8.00;;
29120;SDS011;16191;49.548;8.658;2022-10-20T05:14:08;13.80;;;8.55;;
29120;SDS011;16191;49.548;8.658;2022-10-20T05:16:34;10.32;;;7.60;;
29120;SDS011;16191;49.548;8.658;2022-10-20T05:19:01;11.20;;;8.00;;
29120;SDS011;16191;49.548;8.658;2022-10-20T05:21:29;12.38;;;8.20;;
29120;SDS011;16191;49.548;8.658;2022-10-20T05:23:57;16.55;;;8.75;;
29120;SDS011;16191;49.548;8.658;2022-10-20T05:26:28;13.20;;;9.13;;
29120;SDS011;16191;49.548;8.658;2022-10-20T05:29:00;14.57;;;8.35;;
29120;SDS011;16191;49.548;8.658;2022-10-20T05:31:29;14.97;;;9.07;;
29120;SDS011;16191;49.548;8.658;2022-10-20T05:33:56;13.70;;;8.63;;
29120;SDS011;16191;49.548;8.658;2022-10-20T05:36:24;14.07;;;9.50;;
29120;SDS011;16191;49.548;8.658;2022-10-20T05:38:52;21.73;;;9.63;;
29120;SDS011;16191;49.548;8.658;2022-10-20T05:41:21;17.88;;;9.70;;
29120;SDS011;16191;49.548;8.658;2022-10-20T05:43:49;15.65;;;9.48;;
29120;SDS011;16191;49.548;8.658;2022-10-20T05:46:18;14.02;;;9.77;;
29120;SDS011;16191;49.548;8.658;2022-10-20T05:48:46;12.32;;;9.57;;
29120;SDS011;16191;49.548;8.658;2022-10-20T05:51:14;23.10;;;10.10;;
29120;SDS011;16191;49.548;8.658;2022-10-20T05:53:45;16.48;;;9.82;;
29120;SDS011;16191;49.548;8.658;2022-10-20T05:56:15;13.20;;;9.45;;
29120;SDS011;16191;49.548;8.658;2022-10-20T05:58:44;14.73;;;10.13;;
29120;SDS011;16191;49.548;8.658;2022-10-20T06:01:17;13.50;;;10.00;;
29120;SDS011;16191;49.548;8.658;2022-10-20T06:08:46;19.17;;;10.15;;
29120;SDS011;16191;49.548;8.658;2022-10-20T06:11:13;20.63;;;10.68;;
29120;SDS011;16191;49.548;8.658;2022-10-20T06:13:40;17.48;;;10.65;;
29120;SDS011;16191;49.548;8.658;2022-10-20T06:16:08;14.68;;;10.88;;
29120;SDS011;16191;49.548;8.658;2022-10-20T06:18:40;22.10;;;10.88;;
29120;SDS011;16191;49.548;8.658;2022-10-20T06:23:57;21.60;;;11.43;;
29120;SDS011;16191;49.548;8.658;2022-10-20T06:26:25;21.67;;;12.10;;
29120;SDS011;16191;49.548;8.658;2022-10-20T06:28:55;18.67;;;11.63;;
29120;SDS011;16191;49.548;8.658;2022-10-20T06:31:34;23.98;;;11.95;;
29120;SDS011;16191;49.548;8.658;2022-10-20T06:34:03;19.15;;;12.05;;
29120;SDS011;16191;49.548;8.658;2022-10-20T06:36:33;21.98;;;11.82;;
29120;SDS011;16191;49.548;8.658;2022-10-20T06:39:02;20.02;;;12.45;;
29120;SDS011;16191;49.548;8.658;2022-10-20T06:41:31;16.45;;;12.07;;
29120;SDS011;16191;49.548;8.658;2022-10-20T06:43:58;20.77;;;12.45;;
29120;SDS011;16191;49.548;8.658;2022-10-20T06:46:26;16.83;;;11.57;;
29120;SDS011;16191;49.548;8.658;2022-10-20T06:48:55;19.30;;;11.35;;
29120;SDS011;16191;49.548;8.658;2022-10-20T06:51:24;20.88;;;12.25;;
29120;SDS011;16191;49.548;8.658;2022-10-20T06:53:51;18.35;;;11.27;;
29120;SDS011;16191;49.548;8.658;2022-10-20T06:56:19;17.00;;;11.23;;
29120;SDS011;16191;49.548;8.658;2022-10-20T06:58:49;16.92;;;11.40;;
29120;SDS011;16191;49.548;8.658;2022-10-20T07:01:19;20.25;;;12.70;;
29120;SDS011;16191;49.548;8.658;2022-10-20T07:03:50;19.60;;;12.07;;
29120;SDS011;16191;49.548;8.658;2022-10-20T07:06:19;21.35;;;12.20;;
29120;SDS011;16191;49.548;8.658;2022-10-20T07:08:51;22.35;;;12.13;;
29120;SDS011;16191;49.548;8.658;2022-10-20T07:11:23;16.42;;;10.73;;
29120;SDS011;16191;49.548;8.658;2022-10-20T07:13:52;21.13;;;12.00;;
29120;SDS011;16191;49.548;8.658;2022-10-20T07:16:20;21.25;;;10.82;;
29120;SDS011;16191;49.548;8.658;2022-10-20T07:18:48;18.92;;;11.27;;
29120;SDS011;16191;49.548;8.658;2022-10-20T07:21:19;22.25;;;10.80;;
29120;SDS011;16191;49.548;8.658;2022-10-20T07:23:48;20.35;;;12.90;;
29120;SDS011;16191;49.548;8.658;2022-10-20T07:26:16;19.50;;;12.13;;
29120;SDS011;16191;49.548;8.658;2022-10-20T07:28:47;21.70;;;12.30;;
29120;SDS011;16191;49.548;8.658;2022-10-20T07:31:21;20.35;;;12.55;;
29120;SDS011;16191;49.548;8.658;2022-10-20T07:33:50;30.13;;;12.18;;
29120;SDS011;16191;49.548;8.658;2022-10-20T07:36:37;19.70;;;13.18;;
29120;SDS011;16191;49.548;8.658;2022-10-20T07:39:07;19.33;;;12.35;;
29120;SDS011;16191;49.548;8.658;2022-10-20T07:41:35;20.52;;;11.45;;
29120;SDS011;16191;49.548;8.658;2022-10-20T07:44:04;18.77;;;12.05;;
29120;SDS011;16191;49.548;8.658;2022-10-20T07:46:31;22.80;;;14.02;;
29120;SDS011;16191;49.548;8.658;2022-10-20T07:48:57;18.60;;;12.00;;
29120;SDS011;16191;49.548;8.658;2022-10-20T07:51:44;21.30;;;11.52;;
29120;SDS011;16191;49.548;8.658;2022-10-20T07:54:10;24.67;;;11.98;;
29120;SDS011;16191;49.548;8.658;2022-10-20T07:56:38;16.08;;;11.55;;
29120;SDS011;16191;49.548;8.658;2022-10-20T07:59:06;24.15;;;12.80;;
29120;SDS011;16191;49.548;8.658;2022-10-20T08:01:34;18.88;;;12.40;;
29120;SDS011;16191;49.548;8.658;2022-10-20T08:04:01;20.05;;;10.95;;
29120;SDS011;16191;49.548;8.658;2022-10-20T08:06:28;19.50;;;11.10;;
29120;SDS011;16191;49.548;8.658;2022-10-20T08:08:55;24.75;;;12.52;;
29120;SDS011;16191;49.548;8.658;2022-10-20T08:11:21;19.08;;;13.15;;
29120;SDS011;16191;49.548;8.658;2022-10-20T08:13:49;16.50;;;11.65;;
29120;SDS011;16191;49.548;8.658;2022-10-20T08:16:15;18.30;;;12.13;;
29120;SDS011;16191;49.548;8.658;2022-10-20T08:19:00;20.02;;;11.80;;
29120;SDS011;16191;49.548;8.658;2022-10-20T08:21:36;18.42;;;11.60;;
29120;SDS011;16191;49.548;8.658;2022-10-20T08:24:03;15.85;;;11.20;;
29120;SDS011;16191;49.548;8.658;2022-10-20T08:26:29;17.67;;;10.95;;
29120;SDS011;16191;49.548;8.658;2022-10-20T08:28:56;14.45;;;10.45;;
29120;SDS011;16191;49.548;8.658;2022-10-20T08:31:22;16.55;;;10.45;;
29120;SDS011;16191;49.548;8.658;2022-10-20T08:33:49;19.08;;;9.60;;
29120;SDS011;16191;49.548;8.658;2022-10-20T08:36:18;16.52;;;10.15;;
29120;SDS011;16191;49.548;8.658;2022-10-20T08:38:45;15.23;;;10.15;;
29120;SDS011;16191;49.548;8.658;2022-10-20T08:41:20;23.77;;;9.95;;
29120;SDS011;16191;49.548;8.658;2022-10-20T08:44:31;14.43;;;9.48;;
29120;SDS011;16191;49.548;8.658;2022-10-20T08:47:03;20.98;;;8.95;;
29120;SDS011;16191;49.548;8.658;2022-10-20T08:49:39;13.27;;;8.97;;
29120;SDS011;16191;49.548;8.658;2022-10-20T08:52:10;15.40;;;8.57;;
29120;SDS011;16191;49.548;8.658;2022-10-20T08:54:41;13.30;;;8.60;;
29120;SDS011;16191;49.548;8.658;2022-10-20T08:57:21;13.45;;;8.10;;
29120;SDS011;16191;49.548;8.658;2022-10-20T08:59:51;14.48;;;8.10;;
29120;SDS011;16191;49.548;8.658;2022-10-20T09:02:20;14.38;;;7.72;;
29120;SDS011;16191;49.548;8.658;2022-10-20T09:04:51;14.98;;;7.57;;
29120;SDS011;16191;49.548;8.658;2022-10-20T09:12:46;15.38;;;8.82;;
29120;SDS011;16191;49.548;8.658;2022-10-20T09:15:15;16.92;;;8.45;;
29120;SDS011;16191;49.548;8.658;2022-10-20T09:17:45;15.27;;;8.43;;
29120;SDS011;16191;49.548;8.658;2022-10-20T09:20:16;11.27;;;7.82;;
29120;SDS011;16191;49.548;8.658;2022-10-20T09:22:46;12.63;;;9.30;;
29120;SDS011;16191;49.548;8.658;2022-10-20T09:25:18;29.90;;;10.93;;
29120;SDS011;16191;49.548;8.658;2022-10-20T09:27:50;20.00;;;10.13;;
29120;SDS011;16191;49.548;8.658;2022-10-20T09:32:45;19.88;;;9.50;;
29120;SDS011;16191;49.548;8.658;2022-10-20T09:35:29;18.60;;;10.25;;
29120;SDS011;16191;49.548;8.658;2022-10-20T09:40:35;13.05;;;9.40;;
29120;SDS011;16191;49.548;8.658;2022-10-20T09:43:09;14.68;;;9.00;;
29120;SDS011;16191;49.548;8.658;2022-10-20T09:45:48;18.25;;;9.75;;
29120;SDS011;16191;49.548;8.658;2022-10-20T09:50:56;16.10;;;9.48;;
29120;SDS011;16191;49.548;8.658;2022-10-20T09:53:39;15.63;;;10.50;;
29120;SDS011;16191;49.548;8.658;2022-10-20T09:58:52;18.38;;;10.40;;
29120;SDS011;16191;49.548;8.658;2022-10-20T10:01:23;17.73;;;11.05;;
29120;SDS011;16191;49.548;8.658;2022-10-20T10:03:50;18.58;;;10.57;;
29120;SDS011;16191;49.548;8.658;2022-10-20T10:09:05;18.27;;;10.50;;
29120;SDS011;16191;49.548;8.658;2022-10-20T10:12:25;14.63;;;9.95;;
29120;SDS011;16191;49.548;8.658;2022-10-20T10:14:52;18.33;;;10.15;;
29120;SDS011;16191;49.548;8.658;2022-10-20T10:17:34;16.42;;;9.90;;
29120;SDS011;16191;49.548;8.658;2022-10-20T10:20:05;20.95;;;11.05;;
29120;SDS011;16191;49.548;8.658;2022-10-20T10:22:43;20.05;;;10.35;;
29120;SDS011;16191;49.548;8.658;2022-10-20T10:25:28;15.10;;;9.40;;
29120;SDS011;16191;49.548;8.658;2022-10-20T10:27:56;19.92;;;10.73;;
29120;SDS011;16191;49.548;8.658;2022-10-20T10:30:27;13.60;;;9.57;;
29120;SDS011;16191;49.548;8.658;2022-10-20T10:32:54;19.08;;;9.93;;
29120;SDS011;16191;49.548;8.658;2022-10-20T10:35:28;18.42;;;9.80;;
29120;SDS011;16191;49.548;8.658;2022-10-20T10:37:59;18.35;;;10.23;;
29120;SDS011;16191;49.548;8.658;2022-10-20T10:40:34;16.73;;;10.30;;
29120;SDS011;16191;49.548;8.658;2022-10-20T10:43:26;18.67;;;10.20;;
29120;SDS011;16191;49.548;8.658;2022-10-20T10:46:05;14.00;;;9.20;;
29120;SDS011;16191;49.548;8.658;2022-10-20T10:48:37;15.65;;;9.40;;
29120;SDS011;16191;49.548;8.658;2022-10-20T10:51:19;13.05;;;8.55;;
29120;SDS011;16191;49.548;8.658;2022-10-20T10:56:46;6.82;;;4.97;;
29120;SDS011;16191;49.548;8.658;2022-10-20T10:59:20;9.77;;;4.40;;
29120;SDS011;16191;49.548;8.658;2022-10-20T11:07:25;12.48;;;6.60;;
29120;SDS011;16191;49.548;8.658;2022-10-20T11:18:35;10.52;;;7.20;;
29120;SDS011;16191;49.548;8.658;2022-10-20T11:26:49;12.63;;;7.82;;
29120;SDS011;16191;49.548;8.658;2022-10-20T11:29:26;14.43;;;7.78;;
29120;SDS011;16191;49.548;8.658;2022-10-20T11:32:16;16.77;;;7.95;;
29120;SDS011;16191;49.548;8.658;2022-10-20T11:37:49;16.17;;;7.93;;
29120;SDS011;16191;49.548;8.658;2022-10-20T11:40:22;13.27;;;7.85;;
29120;SDS011;16191;49.548;8.658;2022-10-20T11:48:39;16.95;;;7.75;;
29120;SDS011;16191;49.548;8.658;2022-10-20T11:59:30;12.15;;;7.97;;
29120;SDS011;16191;49.548;8.658;2022-10-20T12:11:01;20.58;;;9.15;;
29120;SDS011;16191;49.548;8.658;2022-10-20T12:13:46;15.52;;;8.70;;
29120;SDS011;16191;49.548;8.658;2022-10-20T12:24:43;18.08;;;9.88;;
29120;SDS011;16191;49.548;8.658;2022-10-20T12:27:26;19.63;;;9.30;;
29120;SDS011;16191;49.548;8.658;2022-10-20T12:35:01;17.23;;;9.32;;
29120;SDS011;16191;49.548;8.658;2022-10-20T12:37:58;14.80;;;9.55;;
29120;SDS011;16191;49.548;8.658;2022-10-20T12:43:24;17.23;;;9.95;;
29120;SDS011;16191;49.548;8.658;2022-10-20T12:45:58;15.05;;;9.35;;
29120;SDS011;16191;49.548;8.658;2022-10-20T12:48:32;17.08;;;8.77;;
29120;SDS011;16191;49.548;8.658;2022-10-20T12:51:07;22.02;;;9.82;;
29120;SDS011;16191;49.548;8.658;2022-10-20T12:53:51;14.35;;;9.07;;
29120;SDS011;16191;49.548;8.658;2022-10-20T12:56:22;13.10;;;8.13;;
29120;SDS011;16191;49.548;8.658;2022-10-20T13:04:52;10.70;;;6.40;;
29120;SDS011;16191;49.548;8.658;2022-10-20T13:12:52;12.73;;;5.22;;
29120;SDS011;16191;49.548;8.658;2022-10-20T13:15:20;7.10;;;5.28;;
29120;SDS011;16191;49.548;8.658;2022-10-20T13:17:54;15.02;;;4.82;;
29120;SDS011;16191;49.548;8.658;2022-10-20T13:20:27;8.00;;;4.68;;
29120;SDS011;16191;49.548;8.658;2022-10-20T13:23:29;8.15;;;5.07;;
29120;SDS011;16191;49.548;8.658;2022-10-20T13:26:03;6.70;;;5.13;;
29120;SDS011;16191;49.548;8.658;2022-10-20T13:28:46;5.75;;;4.90;;
29120;SDS011;16191;49.548;8.658;2022-10-20T13:34:09;11.68;;;5.10;;
29120;SDS011;16191;49.548;8.658;2022-10-20T13:40:23;8.20;;;5.55;;
29120;SDS011;16191;49.548;8.658;2022-10-20T13:48:44;13.40;;;6.13;;
29120;SDS011;16191;49.548;8.658;2022-10-20T13:51:27;8.60;;;5.25;;
29120;SDS011;16191;49.548;8.658;2022-10-20T13:53:58;10.30;;;5.72;;
29120;SDS011;16191;49.548;8.658;2022-10-20T14:01:44;10.30;;;6.20;;
29120;SDS011;16191;49.548;8.658;2022-10-20T14:07:03;11.52;;;6.53;;
29120;SDS011;16191;49.548;8.658;2022-10-20T14:09:41;18.65;;;6.18;;
29120;SDS011;16191;49.548;8.658;2022-10-20T14:12:17;9.18;;;6.07;;
29120;SDS011;16191;49.548;8.658;2022-10-20T14:14:48;8.60;;;5.50;;
29120;SDS011;16191;49.548;8.658;2022-10-20T14:17:20;15.30;;;6.65;;
29120;SDS011;16191;49.548;8.658;2022-10-20T14:19:48;14.48;;;6.70;;
29120;SDS011;16191;49.548;8.658;2022-10-20T14:22:19;15.95;;;6.43;;
29120;SDS011;16191;49.548;8.658;2022-10-20T14:24:55;16.67;;;6.30;;
29120;SDS011;16191;49.548;8.658;2022-10-20T14:27:29;14.98;;;6.60;;
29120;SDS011;16191;49.548;8.658;2022-10-20T14:29:58;13.52;;;5.90;;
29120;SDS011;16191;49.548;8.658;2022-10-20T14:32:28;10.20;;;6.13;;
29120;SDS011;16191;49.548;8.658;2022-10-20T14:34:57;9.13;;;6.53;;
29120;SDS011;16191;49.548;8.658;2022-10-20T14:37:36;11.10;;;6.65;;
29120;SDS011;16191;49.548;8.658;2022-10-20T14:40:07;19.10;;;6.30;;
29120;SDS011;16191;49.548;8.658;2022-10-20T14:42:45;13.20;;;6.40;;
29120;SDS011;16191;49.548;8.658;2022-10-20T14:45:22;12.25;;;6.30;;
29120;SDS011;16191;49.548;8.658;2022-10-20T14:47:51;9.90;;;6.38;;
29120;SDS011;16191;49.548;8.658;2022-10-20T14:50:23;12.50;;;6.70;;
29120;SDS011;16191;49.548;8.658;2022-10-20T14:52:52;11.70;;;6.47;;
29120;SDS011;16191;49.548;8.658;2022-10-20T14:55:30;13.60;;;6.43;;
29120;SDS011;16191;49.548;8.658;2022-10-20T14:57:58;11.43;;;6.63;;
29120;SDS011;16191;49.548;8.658;2022-10-20T15:00:31;10.45;;;6.38;;
29120;SDS011;16191;49.548;8.658;2022-10-20T15:03:00;12.80;;;6.22;;
29120;SDS011;16191;49.548;8.658;2022-10-20T15:05:33;9.38;;;5.57;;
29120;SDS011;16191;49.548;8.658;2022-10-20T15:08:06;11.23;;;6.70;;
29120;SDS011;16191;49.548;8.658;2022-10-20T15:10:34;9.95;;;6.15;;
29120;SDS011;16191;49.548;8.658;2022-10-20T15:13:01;11.85;;;6.10;;
29120;SDS011;16191;49.548;8.658;2022-10-20T15:15:28;10.00;;;6.65;;
29120;SDS011;16191;49.548;8.658;2022-10-20T15:20:33;13.35;;;5.85;;
29120;SDS011;16191;49.548;8.658;2022-10-20T15:28:24;9.90;;;6.63;;
29120;SDS011;16191;49.548;8.658;2022-10-20T15:30:50;10.13;;;6.45;;
29120;SDS011;16191;49.548;8.658;2022-10-20T15:33:18;11.18;;;7.07;;
29120;SDS011;16191;49.548;8.658;2022-10-20T15:35:44;18.38;;;8.20;;
29120;SDS011;16191;49.548;8.658;2022-10-20T15:38:15;16.80;;;9.32;;
29120;SDS011;16191;49.548;8.658;2022-10-20T15:40:42;12.63;;;8.30;;
29120;SDS011;16191;49.548;8.658;2022-10-20T15:43:10;13.25;;;7.53;;
29120;SDS011;16191;49.548;8.658;2022-10-20T15:45:39;9.45;;;6.57;;
29120;SDS011;16191;49.548;8.658;2022-10-20T15:48:09;12.95;;;6.40;;
29120;SDS011;16191;49.548;8.658;2022-10-20T15:50:36;12.95;;;6.63;;
29120;SDS011;16191;49.548;8.658;2022-10-20T15:53:04;9.98;;;6.88;;
29120;SDS011;16191;49.548;8.658;2022-10-20T15:55:32;10.80;;;6.85;;
29120;SDS011;16191;49.548;8.658;2022-10-20T15:58:00;10.07;;;6.10;;
29120;SDS011;16191;49.548;8.658;2022-10-20T16:00:27;16.50;;;6.60;;
29120;SDS011;16191;49.548;8.658;2022-10-20T16:02:54;9.68;;;6.47;;
29120;SDS011;16191;49.548;8.658;2022-10-20T16:05:21;8.23;;;6.05;;
29120;SDS011;16191;49.548;8.658;2022-10-20T16:07:50;30.75;;;25.58;;
29120;SDS011;16191;49.548;8.658;2022-10-20T16:10:21;14.00;;;9.73;;
29120;SDS011;16191;49.548;8.658;2022-10-20T16:12:49;13.63;;;6.10;;
29120;SDS011;16191;49.548;8.658;2022-10-20T16:15:16;13.45;;;6.03;;
29120;SDS011;16191;49.548;8.658;2022-10-20T16:17:44;16.17;;;6.28;;
29120;SDS011;16191;49.548;8.658;2022-10-20T16:20:11;12.70;;;6.60;;
29120;SDS011;16191;49.548;8.658;2022-10-20T16:22:39;10.57;;;5.75;;
29120;SDS011;16191;49.548;8.658;2022-10-20T16:25:06;13.60;;;6.55;;
29120;SDS011;16191;49.548;8.658;2022-10-20T16:27:33;12.40;;;6.43;;
29120;SDS011;16191;49.548;8.658;2022-10-20T16:30:00;10.25;;;6.10;;
29120;SDS011;16191;49.548;8.658;2022-10-20T16:32:28;10.32;;;6.00;;
29120;SDS011;16191;49.548;8.658;2022-10-20T16:35:00;13.40;;;6.20;;
29120;SDS011;16191;49.548;8.658;2022-10-20T16:37:28;13.93;;;6.70;;
29120;SDS011;16191;49.548;8.658;2022-10-20T16:39:55;14.27;;;6.43;;
29120;SDS011;16191;49.548;8.658;2022-10-20T16:42:22;14.88;;;6.05;;
29120;SDS011;16191;49.548;8.658;2022-10-20T16:44:48;11.65;;;6.07;;
29120;SDS011;16191;49.548;8.658;2022-10-20T16:47:15;13.82;;;6.47;;
29120;SDS011;16191;49.548;8.658;2022-10-20T16:49:41;13.82;;;6.55;;
29120;SDS011;16191;49.548;8.658;2022-10-20T16:52:08;12.60;;;6.55;;
29120;SDS011;16191;49.548;8.658;2022-10-20T16:54:34;12.07;;;6.53;;
29120;SDS011;16191;49.548;8.658;2022-10-20T16:57:04;7.18;;;5.65;;
29120;SDS011;16191;49.548;8.658;2022-10-20T16:59:34;13.90;;;5.78;;
29120;SDS011;16191;49.548;8.658;2022-10-20T17:02:00;14.40;;;6.05;;
29120;SDS011;16191;49.548;8.658;2022-10-20T17:04:27;10.18;;;6.38;;
29120;SDS011;16191;49.548;8.658;2022-10-20T17:06:54;8.38;;;6.07;;
29120;SDS011;16191;49.548;8.658;2022-10-20T17:09:20;12.30;;;6.60;;
29120;SDS011;16191;49.548;8.658;2022-10-20T17:11:47;10.65;;;6.28;;
29120;SDS011;16191;49.548;8.658;2022-10-20T17:14:13;20.25;;;6.60;;
29120;SDS011;16191;49.548;8.658;2022-10-20T17:16:40;16.00;;;6.93;;
29120;SDS011;16191;49.548;8.658;2022-10-20T17:19:07;12.20;;;7.28;;
29120;SDS011;16191;49.548;8.658;2022-10-20T17:21:34;15.20;;;7.28;;
29120;SDS011;16191;49.548;8.658;2022-10-20T17:24:01;14.13;;;8.80;;
29120;SDS011;16191;49.548;8.658;2022-10-20T17:26:28;22.45;;;10.73;;
29120;SDS011;16191;49.548;8.658;2022-10-20T17:28:59;15.32;;;9.20;;